Tecumseh, Missouri
Current Conditions -  °F | °C
As of 5:53 AM on Thursday 27 Nov 2014 (Local Time) from KBPK Reporting Station
Overcast Overcast  
Wind Chill: 29°   Ceiling: 2500
Heat Index: 33°   Visibility: 7mi
Dew Point: 24°   Wind: 5mph
Humidity: 70%   Direction: 320°NW
Pressure: 30.44"   Gusts: NA
Location:  36.59°N, 92.29°W
Report Text: KBPK 271153Z AUTO 32004KT 7SM OVC025 01/M04 A3044 RMK AO2 SLP311 7//// T00061044 10022 20006 53020
Loading
Personal Weather Stations






























Interactive Weather Map New forecast layout! Learn more

10-Day Weather Forecast

Advertisements
Track Severe Weather on mobile